Weather History for Canby, MN

Change the Weather History Date:

Monday, August 26, 2013

  Actual Average (KMML) Record (KMML)
Temperature  
Mean Temperature 84 °F -  
Max Temperature 92 °F 80 °F 95 °F (1955)
Min Temperature 77 °F 58 °F 44 °F (1958)
Cooling Degree Days 19    
Growing Degree Days 34 (Base 50)    
Moisture  
Dew Point 72 °F    
Average Humidity 66    
Maximum Humidity 76    
Minimum Humidity 52    
Precipitation  
Precipitation 0.00 in - - ()
Sea Level Pressure  
Sea Level Pressure 29.90 in    
Wind  
Wind Speed 12 mph (SSW)    
Max Wind Speed 24 mph    
Max Gust Speed 29 mph    
Visibility 10 miles    
Events      
Averages and records for this station are not official NWS values.
T = Trace of Precipitation, MM = Missing Value Source: NWS Daily Summary

Daily Weather History Graph

Daily Weather History Graph

Search for Another Location

Airport:

Trip Planner

Search our weather history database for the weather conditions in past years. The results will help you decide how hot, cold, wet, or windy it might be!

Date:

Astronomy

Aug. 26, 2013 Rise Set
Actual Time 6:40 AM CDT 8:11 PM CDT
Civil Twilight 6:10 AM CDT 8:42 PM CDT
Nautical Twilight 5:32 AM CDT 9:19 PM CDT
Astronomical Twilight 4:53 AM CDT 9:59 PM CDT
Moon 11:05 PM CDT (8/26) 1:00 PM CDT (8/26)
Length of Visible Light 14h 32m
Length of Day
13h 31m
Waning Gibbous, 66% of the Moon is Illuminated
Aug 26
Waning Gibbous
Aug 28
Last Quarter
Sep 5
New
Sep 12
First Quarter
Sep 19
Full

Hourly Weather History & Observations

Time (CDT) Temp. Heat Index Dew Point Humidity Pressure Visibility Wind Dir Wind Speed Gust Speed Precip Events Conditions
12:14 AM 84.2 °F 90.3 °F 72.7 °F 68% 29.95 in 10.0 mi SW 24.2 mph 28.8 mph N/A   Clear
12:34 AM 83.8 °F 89.8 °F 72.5 °F 69% 29.95 in 10.0 mi SW 16.1 mph 27.6 mph N/A   Clear
12:54 AM 83.7 °F 89.2 °F 72.0 °F 68% 29.95 in 10.0 mi SSW 15.0 mph 24.2 mph N/A   Clear
1:14 AM 83.3 °F 88.4 °F 71.8 °F 68% 29.95 in 10.0 mi SW 12.7 mph 18.4 mph N/A   Clear
1:34 AM 82.4 °F 87.2 °F 71.6 °F 70% 29.95 in 10.0 mi SW 13.8 mph 23.0 mph N/A   Clear
1:54 AM 81.9 °F 86.4 °F 71.6 °F 71% 29.95 in 10.0 mi SW 15.0 mph 24.2 mph N/A   Clear
2:13 AM 81.5 °F 85.9 °F 71.6 °F 72% 29.95 in 10.0 mi SW 15.0 mph 23.0 mph N/A   Clear
2:34 AM 81.0 °F 85.1 °F 71.6 °F 73% 29.95 in 10.0 mi SW 15.0 mph 21.9 mph N/A   Clear
2:54 AM 80.6 °F 84.4 °F 71.2 °F 73% 29.94 in 10.0 mi SW 10.4 mph 20.7 mph N/A   Clear
3:14 AM 80.1 °F 83.6 °F 71.1 °F 74% 29.95 in 10.0 mi SW 12.7 mph 23.0 mph N/A   Clear
3:34 AM 79.7 °F - 70.9 °F 74% 29.94 in 10.0 mi SW 13.8 mph 21.9 mph N/A   Clear
3:54 AM 79.7 °F - 70.7 °F 74% 29.94 in 10.0 mi SW 12.7 mph 21.9 mph N/A   Clear
4:14 AM 79.5 °F - 70.2 °F 73% 29.94 in 10.0 mi SW 12.7 mph 19.6 mph N/A   Clear
4:34 AM 78.8 °F - 70.2 °F 75% 29.94 in 10.0 mi SW 10.4 mph 18.4 mph N/A   Clear
4:54 AM 78.8 °F - 70.0 °F 74% 29.94 in 10.0 mi SW 10.4 mph - N/A   Clear
5:14 AM 78.6 °F - 69.8 °F 74% 29.94 in 10.0 mi SW 8.1 mph - N/A   Clear
5:34 AM 78.3 °F - 69.8 °F 75% 29.94 in 10.0 mi WSW 5.8 mph - N/A   Clear
5:54 AM 77.9 °F - 69.4 °F 75% 29.94 in 10.0 mi West 8.1 mph - N/A   Clear
6:14 AM 77.4 °F - 69.3 °F 76% 29.95 in 10.0 mi WSW 3.5 mph - N/A   Clear
6:34 AM 77.2 °F - 69.1 °F 76% 29.95 in 10.0 mi WSW 5.8 mph - N/A   Clear
6:54 AM 77.2 °F - 68.9 °F 76% 29.95 in 10.0 mi SW 10.4 mph - N/A   Clear
7:14 AM 77.4 °F - 68.9 °F 75% 29.95 in 10.0 mi SW 10.4 mph 16.1 mph N/A   Clear
7:34 AM 77.9 °F - 68.5 °F 73% 29.95 in 10.0 mi SW 12.7 mph 18.4 mph N/A   Clear
7:54 AM 78.4 °F - 68.5 °F 72% 29.95 in 10.0 mi SW 11.5 mph 17.3 mph N/A   Clear
8:14 AM 79.0 °F - 68.5 °F 70% 29.94 in 10.0 mi SW 11.5 mph 20.7 mph N/A   Clear
8:34 AM 79.9 °F - 68.9 °F 69% 29.94 in 10.0 mi SW 15.0 mph 18.4 mph N/A   Clear
8:54 AM 80.8 °F 83.6 °F 68.5 °F 66% 29.94 in 10.0 mi SSW 12.7 mph 20.7 mph N/A   Clear
9:14 AM 81.9 °F 85.0 °F 68.5 °F 64% 29.94 in 10.0 mi SW 12.7 mph 19.6 mph N/A   Clear
9:34 AM 83.3 °F 86.6 °F 68.4 °F 61% 29.94 in 10.0 mi SW 11.5 mph 19.6 mph N/A   Clear
9:54 AM 84.2 °F 87.3 °F 68.2 °F 58% 29.93 in 10.0 mi SW 11.5 mph 19.6 mph N/A   Clear
10:14 AM 85.1 °F 88.5 °F 68.2 °F 57% 29.93 in 10.0 mi SW 10.4 mph 17.3 mph N/A   Clear
10:34 AM 86.5 °F 90.3 °F 68.5 °F 55% 29.93 in 10.0 mi SW 9.2 mph 16.1 mph N/A   Clear
10:54 AM 87.1 °F 90.6 °F 68.2 °F 53% 29.93 in 10.0 mi SW 10.4 mph 17.3 mph N/A   Clear
11:14 AM 88.0 °F 91.8 °F 68.2 °F 52% 29.93 in 10.0 mi SW 9.2 mph - N/A   Clear
11:34 AM 88.0 °F 91.8 °F 68.2 °F 52% 29.93 in 10.0 mi SW 5.8 mph - N/A   Clear
11:54 AM 88.5 °F 92.7 °F 69.1 °F 52% 29.92 in 10.0 mi SSW 9.2 mph - N/A   Clear
12:14 PM 87.4 °F 91.9 °F 69.6 °F 55% 29.92 in 10.0 mi South 8.1 mph - N/A   Clear
12:34 PM 88.0 °F 93.4 °F 70.3 °F 56% 29.92 in 10.0 mi SSE 4.6 mph - N/A   Clear
12:54 PM 89.8 °F 96.0 °F 71.1 °F 54% 29.91 in 10.0 mi South 9.2 mph - N/A   Clear
1:14 PM 89.1 °F 96.0 °F 71.8 °F 57% 29.91 in 10.0 mi South 5.8 mph - N/A   Clear
1:34 PM 89.6 °F 97.7 °F 72.9 °F 58% 29.90 in 10.0 mi SSE 10.4 mph - N/A   Clear
1:54 PM 90.5 °F 97.5 °F 72.0 °F 54% 29.90 in 10.0 mi SSE 10.4 mph - N/A   Clear
2:14 PM 90.7 °F 97.9 °F 72.1 °F 54% 29.89 in 10.0 mi SSE 10.4 mph - N/A   Clear
2:34 PM 90.9 °F 98.3 °F 72.3 °F 54% 29.88 in 10.0 mi SSE 12.7 mph 17.3 mph N/A   Clear
2:54 PM 88.9 °F 95.6 °F 71.8 °F 57% 29.88 in 10.0 mi South 9.2 mph 18.4 mph N/A   Clear
3:14 PM 91.4 °F 98.4 °F 71.6 °F 52% 29.88 in 10.0 mi South 8.1 mph 18.4 mph N/A   Clear
3:34 PM 91.4 °F 99.5 °F 72.5 °F 54% 29.87 in 10.0 mi South 12.7 mph - N/A   Clear
3:54 PM 89.1 °F 96.5 °F 72.7 °F 58% 29.86 in 10.0 mi South 9.2 mph - N/A   Clear
4:14 PM 91.6 °F 101.1 °F 73.8 °F 56% 29.86 in 10.0 mi South 9.2 mph - N/A   Clear
4:34 PM 90.9 °F 100.0 °F 73.6 °F 57% 29.86 in 10.0 mi SSE 12.7 mph 17.3 mph N/A   Clear
4:54 PM 91.2 °F 100.2 °F 73.4 °F 56% 29.85 in 10.0 mi South 10.4 mph 19.6 mph N/A   Clear
5:14 PM 90.5 °F 99.2 °F 73.6 °F 57% 29.85 in 10.0 mi South 9.2 mph 18.4 mph N/A   Clear
5:34 PM 90.3 °F 99.9 °F 74.5 °F 59% 29.85 in 10.0 mi South 8.1 mph 16.1 mph N/A   Clear
5:54 PM 90.5 °F 100.9 °F 74.7 °F 60% 29.84 in 10.0 mi South 9.2 mph - N/A   Clear
6:14 PM 89.8 °F 99.7 °F 74.8 °F 61% 29.84 in 10.0 mi South 10.4 mph - N/A   Clear
6:34 PM 89.1 °F 99.1 °F 74.8 °F 63% 29.83 in 10.0 mi South 10.4 mph 18.4 mph N/A   Clear
6:54 PM 88.7 °F 98.2 °F 74.8 °F 63% 29.82 in 10.0 mi South 9.2 mph 18.4 mph N/A   Clear
7:14 PM 87.3 °F 96.3 °F 74.8 °F 66% 29.82 in 10.0 mi South 10.4 mph - N/A   Clear
7:34 PM 87.1 °F 95.9 °F 74.5 °F 66% 29.82 in 10.0 mi South 11.5 mph 17.3 mph N/A   Clear
7:54 PM 86.2 °F 94.6 °F 74.5 °F 68% 29.82 in 10.0 mi South 9.2 mph 19.6 mph N/A   Clear
8:14 PM 85.6 °F 93.8 °F 74.3 °F 69% 29.82 in 10.0 mi South 9.2 mph 19.6 mph N/A   Clear
8:34 PM 85.3 °F 93.4 °F 74.3 °F 70% 29.82 in 10.0 mi SSW 8.1 mph - N/A   Clear
8:54 PM 84.6 °F 92.1 °F 74.3 °F 71% 29.82 in 10.0 mi SSW 6.9 mph - N/A   Clear
9:14 PM 84.4 °F 92.0 °F 74.3 °F 72% 29.83 in 10.0 mi SSW 9.2 mph - N/A   Clear
9:34 PM 84.2 °F 91.6 °F 74.3 °F 72% 29.83 in 10.0 mi South 5.8 mph 16.1 mph N/A   Clear
9:54 PM 83.7 °F 90.7 °F 74.3 °F 73% 29.83 in 10.0 mi South 6.9 mph - N/A   Clear
10:14 PM 83.3 °F 90.2 °F 74.3 °F 74% 29.83 in 10.0 mi SSW 6.9 mph - N/A   Clear
10:34 PM 83.3 °F 90.2 °F 74.1 °F 74% 29.82 in 10.0 mi SSW 9.2 mph 16.1 mph N/A   Clear
10:54 PM 83.5 °F 90.6 °F 74.3 °F 74% 29.82 in 10.0 mi SSW 11.5 mph 19.6 mph N/A   Clear
11:14 PM 83.3 °F 90.2 °F 74.3 °F 74% 29.82 in 10.0 mi SSW 10.4 mph 17.3 mph N/A   Clear
11:34 PM 83.3 °F 89.9 °F 73.8 °F 73% 29.82 in 10.0 mi SSW 9.2 mph - N/A   Clear
11:54 PM 84.2 °F 90.6 °F 73.2 °F 69% 29.82 in 10.0 mi SSW 11.5 mph 18.4 mph N/A   Clear